createdAt,value
2024-03-24T00:00:39.213Z,761.00
2024-03-24T00:01:39.266Z,777.00
2024-03-24T00:02:39.310Z,772.00
2024-03-24T00:03:39.345Z,767.00
2024-03-24T00:04:39.865Z,753.00
2024-03-24T00:05:39.442Z,754.00
2024-03-24T00:06:39.466Z,764.00
2024-03-24T00:07:39.520Z,755.00
2024-03-24T00:08:39.548Z,756.00
2024-03-24T00:09:39.583Z,748.00
2024-03-24T00:10:39.615Z,761.00
2024-03-24T00:11:39.646Z,755.00
2024-03-24T00:12:39.702Z,739.00
2024-03-24T00:13:39.695Z,743.00
2024-03-24T00:14:39.728Z,751.00
2024-03-24T00:15:39.771Z,745.00
2024-03-24T00:16:39.818Z,746.00
2024-03-24T00:17:39.849Z,762.00
2024-03-24T00:18:39.925Z,747.00
2024-03-24T00:19:39.962Z,753.00
2024-03-24T00:20:39.985Z,751.00
2024-03-24T00:21:40.030Z,745.00
2024-03-24T00:22:40.065Z,753.00
2024-03-24T00:23:40.102Z,748.00
2024-03-24T00:24:40.131Z,757.00
2024-03-24T00:25:40.181Z,756.00
2024-03-24T00:26:40.243Z,753.00
2024-03-24T00:27:40.288Z,760.00
2024-03-24T00:28:40.352Z,766.00
2024-03-24T00:29:40.407Z,754.00
2024-03-24T00:30:40.455Z,755.00
2024-03-24T00:31:40.520Z,759.00
2024-03-24T00:32:40.568Z,757.00
2024-03-24T00:33:40.668Z,746.00
2024-03-24T00:34:40.670Z,746.00
2024-03-24T00:35:40.715Z,742.00
2024-03-24T00:36:40.747Z,763.00
2024-03-24T00:37:40.792Z,756.00
2024-03-24T00:38:40.833Z,762.00
2024-03-24T00:39:43.365Z,767.00
2024-03-24T00:40:40.888Z,767.00
2024-03-24T00:41:40.908Z,769.00
2024-03-24T00:42:40.890Z,771.00
2024-03-24T00:43:40.889Z,769.00
2024-03-24T00:44:40.907Z,777.00
2024-03-24T00:45:40.896Z,772.00
2024-03-24T00:46:40.897Z,763.00
2024-03-24T00:47:40.897Z,753.00
2024-03-24T00:48:40.900Z,765.00
2024-03-24T00:49:40.900Z,787.00
2024-03-24T00:50:40.908Z,786.00
2024-03-24T00:51:40.919Z,780.00
2024-03-24T00:52:40.906Z,791.00
2024-03-24T00:53:40.905Z,780.00
2024-03-24T00:54:40.919Z,779.00
2024-03-24T00:55:40.916Z,780.00
2024-03-24T00:56:40.913Z,772.00
2024-03-24T00:57:40.904Z,785.00
2024-03-24T00:58:40.907Z,774.00
2024-03-24T00:59:40.904Z,774.00
2024-03-24T01:00:40.912Z,765.00
2024-03-24T01:01:40.926Z,763.00
2024-03-24T01:02:40.957Z,777.00
2024-03-24T01:03:40.918Z,784.00
2024-03-24T01:04:40.927Z,787.00
2024-03-24T01:05:40.918Z,779.00
2024-03-24T01:06:40.925Z,794.00
2024-03-24T01:07:40.914Z,792.00
2024-03-24T01:08:40.964Z,784.00
2024-03-24T01:09:40.998Z,777.00
2024-03-24T01:10:41.044Z,781.00
2024-03-24T01:11:41.058Z,785.00
2024-03-24T01:12:41.093Z,795.00
2024-03-24T01:13:41.114Z,790.00
2024-03-24T01:14:41.164Z,807.00
2024-03-24T01:15:41.192Z,796.00
2024-03-24T01:16:41.220Z,812.00
2024-03-24T01:17:41.275Z,798.00
2024-03-24T01:18:41.311Z,798.00
2024-03-24T01:19:41.359Z,803.00
2024-03-24T01:20:41.393Z,802.00
2024-03-24T01:21:41.441Z,795.00
2024-03-24T01:22:41.494Z,798.00
2024-03-24T01:23:41.521Z,788.00
2024-03-24T01:24:41.545Z,793.00
2024-03-24T01:25:41.570Z,787.00
2024-03-24T01:26:41.614Z,789.00
2024-03-24T01:27:41.685Z,792.00
2024-03-24T01:28:41.675Z,781.00
2024-03-24T01:29:41.712Z,786.00
2024-03-24T01:30:41.768Z,783.00
2024-03-24T01:31:41.802Z,773.00
2024-03-24T01:32:41.852Z,782.00
2024-03-24T01:33:41.905Z,777.00
2024-03-24T01:34:41.951Z,771.00
2024-03-24T01:35:41.994Z,781.00
2024-03-24T01:36:42.053Z,767.00
2024-03-24T01:37:42.095Z,773.00
2024-03-24T01:38:42.148Z,780.00
2024-03-24T01:39:42.190Z,775.00
2024-03-24T01:40:42.227Z,771.00
2024-03-24T01:41:42.249Z,764.00
2024-03-24T01:42:42.276Z,774.00
2024-03-24T01:43:42.296Z,764.00
2024-03-24T01:44:42.349Z,762.00
2024-03-24T01:45:42.388Z,754.00
2024-03-24T01:46:42.423Z,765.00
2024-03-24T01:47:42.454Z,743.00
2024-03-24T01:48:42.500Z,762.00
2024-03-24T01:49:42.542Z,757.00
2024-03-24T01:50:42.542Z,749.00
2024-03-24T01:51:42.573Z,750.00
2024-03-24T01:52:42.611Z,741.00
2024-03-24T01:53:42.643Z,745.00
2024-03-24T01:54:42.746Z,737.00
2024-03-24T01:55:42.739Z,730.00
2024-03-24T01:56:42.758Z,737.00
2024-03-24T01:57:42.786Z,752.00
2024-03-24T01:58:42.795Z,745.00
2024-03-24T01:59:42.821Z,731.00
2024-03-24T02:00:42.865Z,735.00
2024-03-24T02:01:42.892Z,728.00
2024-03-24T02:02:42.953Z,733.00
2024-03-24T02:03:42.977Z,739.00
2024-03-24T02:04:42.996Z,733.00
2024-03-24T02:05:43.041Z,737.00
2024-03-24T02:06:43.130Z,725.00
2024-03-24T02:07:43.118Z,739.00
2024-03-24T02:08:43.157Z,732.00
2024-03-24T02:09:43.190Z,729.00
2024-03-24T02:10:43.262Z,728.00
2024-03-24T02:11:43.285Z,734.00
2024-03-24T02:12:43.338Z,727.00
2024-03-24T02:13:43.399Z,738.00
2024-03-24T02:14:43.457Z,724.00
2024-03-24T02:15:43.519Z,732.00
2024-03-24T02:16:43.548Z,734.00
2024-03-24T02:17:43.585Z,731.00
2024-03-24T02:18:44.659Z,726.00
2024-03-24T02:19:43.648Z,729.00
2024-03-24T02:20:43.646Z,725.00
2024-03-24T02:21:43.633Z,724.00
2024-03-24T02:22:43.630Z,715.00
2024-03-24T02:23:43.641Z,720.00
2024-03-24T02:24:43.655Z,725.00
2024-03-24T02:25:43.651Z,742.00
2024-03-24T02:26:43.684Z,733.00
2024-03-24T02:27:43.637Z,735.00
2024-03-24T02:28:43.664Z,729.00
2024-03-24T02:29:43.657Z,739.00
2024-03-24T02:30:43.648Z,736.00
2024-03-24T02:31:43.648Z,747.00
2024-03-24T02:32:43.656Z,746.00
2024-03-24T02:33:43.669Z,740.00
2024-03-24T02:34:43.652Z,737.00
2024-03-24T02:35:43.645Z,751.00
2024-03-24T02:36:43.650Z,769.00
2024-03-24T02:37:43.672Z,764.00
2024-03-24T02:38:43.685Z,760.00
2024-03-24T02:39:43.649Z,757.00
2024-03-24T02:40:45.197Z,760.00
2024-03-24T02:41:43.662Z,761.00
2024-03-24T02:42:43.667Z,761.00
2024-03-24T02:43:43.662Z,768.00
2024-03-24T02:44:43.662Z,769.00
2024-03-24T02:45:43.657Z,786.00
2024-03-24T02:46:43.689Z,787.00
2024-03-24T02:47:43.688Z,792.00
2024-03-24T02:48:43.686Z,782.00
2024-03-24T02:49:43.667Z,794.00
2024-03-24T02:50:43.699Z,796.00
2024-03-24T02:51:43.677Z,802.00
2024-03-24T02:52:43.662Z,793.00
2024-03-24T02:53:43.671Z,796.00
2024-03-24T02:54:43.669Z,794.00
2024-03-24T02:55:43.674Z,793.00
2024-03-24T02:56:43.681Z,804.00
2024-03-24T02:57:43.675Z,805.00
2024-03-24T02:58:43.674Z,791.00
2024-03-24T02:59:43.713Z,807.00
2024-03-24T03:00:43.678Z,796.00
2024-03-24T03:01:43.691Z,797.00
2024-03-24T03:02:43.689Z,788.00
2024-03-24T03:03:43.753Z,790.00
2024-03-24T03:04:43.691Z,792.00
2024-03-24T03:05:43.686Z,792.00
2024-03-24T03:06:43.678Z,789.00
2024-03-24T03:07:43.676Z,772.00
2024-03-24T03:08:43.679Z,772.00
2024-03-24T03:09:43.679Z,772.00
2024-03-24T03:10:43.692Z,776.00
2024-03-24T03:11:43.685Z,774.00
2024-03-24T03:12:43.688Z,785.00
2024-03-24T03:13:43.693Z,783.00
2024-03-24T03:14:43.698Z,782.00
2024-03-24T03:15:43.694Z,783.00
2024-03-24T03:16:43.694Z,787.00
2024-03-24T03:17:43.710Z,778.00
2024-03-24T03:18:43.700Z,796.00
2024-03-24T03:19:43.719Z,785.00
2024-03-24T03:20:43.701Z,794.00
2024-03-24T03:21:43.718Z,801.00
2024-03-24T03:22:43.703Z,788.00
2024-03-24T03:23:43.697Z,783.00
2024-03-24T03:24:43.695Z,793.00
2024-03-24T03:25:43.710Z,800.00
2024-03-24T03:26:43.714Z,791.00
2024-03-24T03:27:43.709Z,798.00
2024-03-24T03:28:43.701Z,791.00
2024-03-24T03:29:43.705Z,812.00
2024-03-24T03:30:43.711Z,801.00
2024-03-24T03:31:43.711Z,803.00
2024-03-24T03:32:43.720Z,803.00
2024-03-24T03:33:43.714Z,805.00
2024-03-24T03:34:43.721Z,808.00
2024-03-24T03:35:43.720Z,797.00
2024-03-24T03:36:43.728Z,790.00
2024-03-24T03:37:43.776Z,810.00
2024-03-24T03:38:43.722Z,798.00
2024-03-24T03:39:43.756Z,805.00
2024-03-24T03:40:43.714Z,803.00
2024-03-24T03:41:43.720Z,800.00
2024-03-24T03:42:43.727Z,811.00
2024-03-24T03:43:43.715Z,808.00
2024-03-24T03:44:43.736Z,806.00
2024-03-24T03:45:43.722Z,796.00
2024-03-24T03:46:43.724Z,796.00
2024-03-24T03:47:43.715Z,805.00
2024-03-24T03:48:43.716Z,796.00
2024-03-24T03:49:43.720Z,806.00
2024-03-24T03:50:43.716Z,819.00
2024-03-24T03:51:43.728Z,799.00
2024-03-24T03:52:43.734Z,801.00
2024-03-24T03:53:43.734Z,798.00
2024-03-24T03:54:43.736Z,792.00
2024-03-24T03:55:43.756Z,794.00
2024-03-24T03:56:43.829Z,795.00
2024-03-24T03:57:43.821Z,785.00
2024-03-24T03:58:43.843Z,792.00
2024-03-24T03:59:43.867Z,794.00
2024-03-24T04:00:43.866Z,792.00
2024-03-24T04:01:43.914Z,790.00
2024-03-24T04:02:43.895Z,795.00
2024-03-24T04:03:43.940Z,790.00
2024-03-24T04:04:43.958Z,784.00
2024-03-24T04:05:43.979Z,783.00
2024-03-24T04:06:44.033Z,788.00
2024-03-24T04:07:44.046Z,786.00
2024-03-24T04:08:44.032Z,776.00
2024-03-24T04:09:44.051Z,776.00
2024-03-24T04:10:44.118Z,781.00
2024-03-24T04:11:44.198Z,778.00
2024-03-24T04:12:44.205Z,765.00
2024-03-24T04:13:44.258Z,782.00
2024-03-24T04:14:44.246Z,783.00
2024-03-24T04:15:44.276Z,781.00
2024-03-24T04:16:44.283Z,775.00
2024-03-24T04:17:44.305Z,771.00
2024-03-24T04:18:44.318Z,778.00
2024-03-24T04:19:44.329Z,780.00
2024-03-24T04:20:44.381Z,787.00
2024-03-24T04:21:44.428Z,773.00
2024-03-24T04:22:44.471Z,776.00
2024-03-24T04:23:44.506Z,774.00
2024-03-24T04:24:44.555Z,777.00
2024-03-24T04:25:44.569Z,782.00
2024-03-24T04:26:44.615Z,784.00
2024-03-24T04:27:44.658Z,780.00
2024-03-24T04:28:44.683Z,781.00
2024-03-24T04:29:44.720Z,774.00
2024-03-24T04:30:44.716Z,782.00
2024-03-24T04:31:44.742Z,777.00
2024-03-24T04:32:44.778Z,785.00
2024-03-24T04:33:44.813Z,787.00
2024-03-24T04:34:44.852Z,794.00
2024-03-24T04:35:44.879Z,794.00
2024-03-24T04:36:44.930Z,792.00
2024-03-24T04:37:44.973Z,792.00
2024-03-24T04:38:44.960Z,795.00
2024-03-24T04:39:44.985Z,783.00
2024-03-24T04:40:45.015Z,797.00
2024-03-24T04:41:45.031Z,805.00
2024-03-24T04:42:45.074Z,803.00
2024-03-24T04:43:52.354Z,600.00
2024-03-24T04:44:52.356Z,600.00
2024-03-24T04:45:52.361Z,600.00
2024-03-24T04:46:52.382Z,600.00
2024-03-24T04:47:52.363Z,600.00
2024-03-24T04:48:52.365Z,602.00
2024-03-24T04:49:52.366Z,602.00
2024-03-24T04:50:52.363Z,602.00
2024-03-24T04:51:52.367Z,605.00
2024-03-24T04:52:52.359Z,601.00
2024-03-24T04:53:52.369Z,602.00
2024-03-24T04:54:52.367Z,604.00
2024-03-24T04:55:52.371Z,606.00
2024-03-24T04:56:52.378Z,603.00
2024-03-24T04:57:52.381Z,604.00
2024-03-24T04:58:52.381Z,600.00
2024-03-24T04:59:52.376Z,607.00
2024-03-24T05:00:52.386Z,601.00
2024-03-24T05:01:52.395Z,603.00
2024-03-24T05:02:52.404Z,603.00
2024-03-24T05:03:52.397Z,601.00
2024-03-24T05:04:52.382Z,609.00
2024-03-24T05:05:52.388Z,606.00
2024-03-24T05:06:52.386Z,605.00
2024-03-24T05:07:52.393Z,605.00
2024-03-24T05:08:52.394Z,604.00
2024-03-24T05:09:52.393Z,609.00
2024-03-24T05:10:52.393Z,603.00
2024-03-24T05:11:52.410Z,603.00
2024-03-24T05:12:52.402Z,608.00
2024-03-24T05:13:52.405Z,605.00
2024-03-24T05:14:52.392Z,604.00
2024-03-24T05:15:52.399Z,604.00
2024-03-24T05:16:52.403Z,608.00
2024-03-24T05:17:52.423Z,610.00
2024-03-24T05:18:52.401Z,614.00
2024-03-24T05:19:52.402Z,617.00
2024-03-24T05:20:52.405Z,616.00
2024-03-24T05:21:52.439Z,622.00
2024-03-24T05:22:52.453Z,615.00
2024-03-24T05:23:52.447Z,621.00
2024-03-24T05:24:52.480Z,621.00
2024-03-24T05:25:52.487Z,619.00
2024-03-24T05:26:52.528Z,619.00
2024-03-24T05:27:52.525Z,618.00
2024-03-24T05:28:55.877Z,622.00
2024-03-24T05:29:52.556Z,628.00
2024-03-24T05:30:52.567Z,628.00
2024-03-24T05:31:52.565Z,628.00
2024-03-24T05:32:52.553Z,625.00
2024-03-24T05:33:52.565Z,628.00
2024-03-24T05:34:52.577Z,631.00
2024-03-24T05:35:52.570Z,632.00
2024-03-24T05:36:52.563Z,631.00
2024-03-24T05:37:52.564Z,635.00
2024-03-24T05:38:52.584Z,629.00
2024-03-24T05:39:52.604Z,628.00
2024-03-24T05:40:52.581Z,629.00
2024-03-24T05:41:52.579Z,636.00
2024-03-24T05:42:52.578Z,629.00
2024-03-24T05:43:52.680Z,632.00
2024-03-24T05:44:52.574Z,628.00
2024-03-24T05:45:52.576Z,634.00
2024-03-24T05:46:52.604Z,629.00
2024-03-24T05:47:52.580Z,631.00
2024-03-24T05:48:52.581Z,630.00
2024-03-24T05:49:52.625Z,631.00
2024-03-24T05:50:52.599Z,630.00
2024-03-24T05:51:52.583Z,629.00
2024-03-24T05:52:52.587Z,632.00
2024-03-24T05:53:52.588Z,630.00
2024-03-24T05:54:52.592Z,632.00
2024-03-24T05:55:52.582Z,631.00
2024-03-24T05:56:52.594Z,627.00
2024-03-24T05:57:52.592Z,630.00
2024-03-24T05:58:52.591Z,630.00
2024-03-24T05:59:52.607Z,629.00
2024-03-24T06:00:52.595Z,629.00
2024-03-24T06:01:52.604Z,627.00
2024-03-24T06:02:52.591Z,627.00
2024-03-24T06:03:52.610Z,627.00
2024-03-24T06:04:52.610Z,631.00
2024-03-24T06:05:52.593Z,629.00
2024-03-24T06:06:52.611Z,626.00
2024-03-24T06:07:52.595Z,629.00
2024-03-24T06:08:52.594Z,625.00
2024-03-24T06:09:52.632Z,624.00
2024-03-24T06:10:52.630Z,625.00
2024-03-24T06:11:52.604Z,627.00
2024-03-24T06:12:52.597Z,626.00
2024-03-24T06:13:52.601Z,626.00
2024-03-24T06:14:52.592Z,627.00
2024-03-24T06:15:52.610Z,622.00
2024-03-24T06:16:52.609Z,623.00
2024-03-24T06:17:52.620Z,621.00
2024-03-24T06:18:52.593Z,622.00
2024-03-24T06:19:52.608Z,621.00
2024-03-24T06:20:52.600Z,618.00
2024-03-24T06:21:52.604Z,619.00
2024-03-24T06:22:52.630Z,618.00
2024-03-24T06:23:52.608Z,622.00
2024-03-24T06:24:52.631Z,619.00
2024-03-24T06:25:52.616Z,619.00
2024-03-24T06:26:52.619Z,619.00
2024-03-24T06:27:52.610Z,616.00
2024-03-24T06:28:52.613Z,615.00
2024-03-24T06:29:52.633Z,616.00
2024-03-24T06:30:52.625Z,617.00
2024-03-24T06:31:52.622Z,616.00
2024-03-24T06:32:52.615Z,611.00
2024-03-24T06:33:52.615Z,608.00
2024-03-24T06:34:52.629Z,612.00
2024-03-24T06:35:52.617Z,614.00
2024-03-24T06:36:52.632Z,615.00
2024-03-24T06:37:52.628Z,616.00
2024-03-24T06:38:52.622Z,607.00
2024-03-24T06:39:52.623Z,613.00
2024-03-24T06:40:52.633Z,613.00
2024-03-24T06:41:52.695Z,615.00
2024-03-24T06:42:52.734Z,608.00
2024-03-24T06:43:52.760Z,614.00
2024-03-24T06:44:52.807Z,614.00
2024-03-24T06:45:53.105Z,609.00
2024-03-24T06:46:52.895Z,609.00
2024-03-24T06:47:52.900Z,611.00
2024-03-24T06:48:52.913Z,610.00
2024-03-24T06:49:52.949Z,617.00
2024-03-24T06:50:52.983Z,616.00
2024-03-24T06:51:53.004Z,610.00
2024-03-24T06:52:53.031Z,610.00
2024-03-24T06:53:53.041Z,615.00
2024-03-24T06:54:53.074Z,615.00
2024-03-24T06:55:53.114Z,615.00
2024-03-24T06:56:53.158Z,615.00
2024-03-24T06:57:53.176Z,612.00
2024-03-24T06:58:53.194Z,614.00
2024-03-24T06:59:53.227Z,614.00
2024-03-24T07:00:53.264Z,616.00
2024-03-24T07:01:53.282Z,615.00
2024-03-24T07:02:53.304Z,613.00
2024-03-24T07:03:53.316Z,618.00
2024-03-24T07:04:53.348Z,616.00
2024-03-24T07:05:53.355Z,614.00
2024-03-24T07:06:53.395Z,613.00
2024-03-24T07:07:53.397Z,611.00
2024-03-24T07:08:53.427Z,607.00
2024-03-24T07:09:53.486Z,613.00
2024-03-24T07:10:53.455Z,609.00
2024-03-24T07:11:53.480Z,613.00
2024-03-24T07:12:53.493Z,608.00
2024-03-24T07:13:53.510Z,608.00
2024-03-24T07:14:53.525Z,609.00
2024-03-24T07:15:53.903Z,607.00
2024-03-24T07:16:53.582Z,608.00
2024-03-24T07:17:53.589Z,607.00
2024-03-24T07:18:53.619Z,605.00
2024-03-24T07:19:53.662Z,606.00
2024-03-24T07:20:53.667Z,606.00
2024-03-24T07:21:53.688Z,604.00
2024-03-24T07:22:53.728Z,606.00
2024-03-24T07:23:53.734Z,603.00
2024-03-24T07:24:53.749Z,604.00
2024-03-24T07:25:53.764Z,601.00
2024-03-24T07:26:53.794Z,605.00
2024-03-24T07:27:53.842Z,604.00
2024-03-24T07:28:53.902Z,604.00
2024-03-24T07:29:53.945Z,606.00
2024-03-24T07:30:54.011Z,606.00
2024-03-24T07:31:54.072Z,601.00
2024-03-24T07:32:54.042Z,600.00
2024-03-24T07:33:54.062Z,604.00
2024-03-24T07:34:54.086Z,600.00
2024-03-24T07:35:54.106Z,600.00
2024-03-24T07:36:54.177Z,600.00
2024-03-24T07:37:54.206Z,605.00
2024-03-24T07:38:54.229Z,601.00
2024-03-24T07:39:54.275Z,602.00
2024-03-24T07:40:54.298Z,604.00
2024-03-24T07:41:54.335Z,605.00
2024-03-24T07:42:54.362Z,603.00
2024-03-24T07:43:54.381Z,603.00
2024-03-24T07:44:54.425Z,606.00
2024-03-24T07:45:54.461Z,603.00
2024-03-24T07:46:54.485Z,604.00
2024-03-24T07:47:54.508Z,602.00
2024-03-24T07:48:54.554Z,602.00
2024-03-24T07:49:54.611Z,606.00
2024-03-24T07:50:54.632Z,603.00
2024-03-24T07:51:54.738Z,606.00
2024-03-24T07:52:57.745Z,601.00
2024-03-24T07:53:54.736Z,605.00
2024-03-24T07:54:54.735Z,608.00
2024-03-24T07:55:54.735Z,609.00
2024-03-24T07:56:54.746Z,605.00
2024-03-24T07:57:54.762Z,603.00
2024-03-24T07:58:54.739Z,611.00
2024-03-24T07:59:54.745Z,607.00
2024-03-24T08:00:54.765Z,606.00
2024-03-24T08:01:54.751Z,607.00
2024-03-24T08:02:54.756Z,606.00
2024-03-24T08:03:54.747Z,606.00
2024-03-24T08:04:54.745Z,607.00
2024-03-24T08:05:54.746Z,612.00
2024-03-24T08:06:54.751Z,609.00
2024-03-24T08:07:56.493Z,610.00
2024-03-24T08:08:54.749Z,612.00
2024-03-24T08:09:54.750Z,611.00
2024-03-24T08:10:54.773Z,612.00
2024-03-24T08:11:54.761Z,612.00
2024-03-24T08:12:54.754Z,611.00
2024-03-24T08:13:54.759Z,615.00
2024-03-24T08:14:54.762Z,615.00
2024-03-24T08:15:54.766Z,617.00
2024-03-24T08:16:54.780Z,614.00
2024-03-24T08:17:54.772Z,612.00
2024-03-24T08:18:54.772Z,615.00
2024-03-24T08:19:54.791Z,615.00
2024-03-24T08:20:57.795Z,619.00
2024-03-24T08:21:54.795Z,619.00
2024-03-24T08:22:54.784Z,619.00
2024-03-24T08:23:54.774Z,620.00
2024-03-24T08:24:54.776Z,618.00
2024-03-24T08:25:54.777Z,621.00
2024-03-24T08:26:54.839Z,617.00
2024-03-24T08:27:54.790Z,624.00
2024-03-24T08:28:54.784Z,614.00
2024-03-24T08:29:54.786Z,617.00
2024-03-24T08:30:54.784Z,616.00
2024-03-24T08:31:54.817Z,617.00
2024-03-24T08:32:54.789Z,611.00
2024-03-24T08:33:54.796Z,613.00
2024-03-24T08:34:54.787Z,610.00
2024-03-24T08:35:54.797Z,605.00
2024-03-24T08:36:54.797Z,607.00
2024-03-24T08:37:54.791Z,608.00
2024-03-24T08:38:54.798Z,605.00
2024-03-24T08:39:54.804Z,607.00
2024-03-24T08:40:54.819Z,605.00
2024-03-24T08:41:54.804Z,600.00
2024-03-24T08:42:54.803Z,602.00
2024-03-24T08:43:54.807Z,601.00
2024-03-24T08:44:54.809Z,604.00
2024-03-24T08:45:54.815Z,603.00
2024-03-24T08:46:54.848Z,602.00
2024-03-24T08:47:54.813Z,607.00
2024-03-24T08:48:54.815Z,603.00
2024-03-24T08:49:54.816Z,607.00
2024-03-24T08:50:54.834Z,600.00
2024-03-24T08:51:54.820Z,610.00
2024-03-24T08:52:54.816Z,605.00
2024-03-24T08:53:54.818Z,606.00
2024-03-24T08:54:54.816Z,603.00
2024-03-24T08:55:55.871Z,602.00
2024-03-24T08:56:54.823Z,602.00
2024-03-24T08:57:54.826Z,603.00
2024-03-24T08:58:54.830Z,605.00
2024-03-24T08:59:54.830Z,603.00
2024-03-24T09:00:54.840Z,603.00
2024-03-24T09:01:54.833Z,605.00
2024-03-24T09:02:54.845Z,601.00
2024-03-24T09:03:54.836Z,600.00
2024-03-24T09:04:54.832Z,606.00
2024-03-24T09:05:54.828Z,605.00
2024-03-24T09:06:54.844Z,603.00
2024-03-24T09:07:54.846Z,604.00
2024-03-24T09:08:54.836Z,606.00
2024-03-24T09:09:54.835Z,605.00
2024-03-24T09:10:54.837Z,600.00
2024-03-24T09:11:54.835Z,603.00
2024-03-24T09:12:54.842Z,605.00
2024-03-24T09:13:54.840Z,602.00
2024-03-24T09:14:54.841Z,606.00
2024-03-24T09:15:54.843Z,606.00
2024-03-24T09:16:54.854Z,605.00
2024-03-24T09:17:54.848Z,608.00
2024-03-24T09:18:54.862Z,611.00
2024-03-24T09:19:54.854Z,615.00
2024-03-24T09:20:54.851Z,610.00
2024-03-24T09:21:54.847Z,614.00
2024-03-24T09:22:54.885Z,615.00
2024-03-24T09:23:56.235Z,615.00
2024-03-24T09:24:54.857Z,614.00
2024-03-24T09:25:54.858Z,615.00
2024-03-24T09:26:54.874Z,619.00
2024-03-24T09:27:54.862Z,621.00
2024-03-24T09:28:54.866Z,619.00
2024-03-24T09:29:54.860Z,623.00
2024-03-24T09:30:54.870Z,622.00
2024-03-24T09:31:54.908Z,619.00
2024-03-24T09:32:54.958Z,620.00
2024-03-24T09:33:54.988Z,619.00
2024-03-24T09:34:58.863Z,623.00
2024-03-24T09:35:56.031Z,623.00
2024-03-24T09:36:55.036Z,622.00
2024-03-24T09:37:55.038Z,624.00
2024-03-24T09:38:55.040Z,624.00
2024-03-24T09:39:55.038Z,626.00
2024-03-24T09:40:55.035Z,619.00
2024-03-24T09:41:55.056Z,625.00
2024-03-24T09:42:55.046Z,622.00
2024-03-24T09:43:55.038Z,622.00
2024-03-24T09:44:55.032Z,630.00
2024-03-24T09:45:55.044Z,625.00
2024-03-24T09:46:55.042Z,630.00
2024-03-24T09:47:55.060Z,628.00
2024-03-24T09:48:55.089Z,632.00
2024-03-24T09:49:55.129Z,628.00
2024-03-24T09:50:55.186Z,636.00
2024-03-24T09:51:55.211Z,639.00
2024-03-24T09:52:55.272Z,637.00
2024-03-24T09:53:55.305Z,644.00
2024-03-24T09:54:55.352Z,643.00
2024-03-24T09:55:55.407Z,643.00
2024-03-24T09:56:56.104Z,645.00
2024-03-24T09:58:06.793Z,648.00
2024-03-24T09:58:56.510Z,639.00
2024-03-24T09:59:55.521Z,644.00
2024-03-24T10:00:55.514Z,640.00
2024-03-24T10:01:55.519Z,644.00
2024-03-24T10:02:55.527Z,641.00
2024-03-24T10:03:55.510Z,642.00
2024-03-24T10:04:55.518Z,638.00
2024-03-24T10:05:55.600Z,642.00
2024-03-24T10:06:55.518Z,646.00
2024-03-24T10:07:55.526Z,643.00
2024-03-24T10:08:55.520Z,643.00
2024-03-24T10:09:55.527Z,649.00
2024-03-24T10:10:55.530Z,641.00
2024-03-24T10:11:55.522Z,644.00
2024-03-24T10:12:55.526Z,640.00
2024-03-24T10:13:55.549Z,641.00
2024-03-24T10:14:55.582Z,641.00
2024-03-24T10:15:55.608Z,639.00
2024-03-24T10:16:55.644Z,641.00
2024-03-24T10:17:55.671Z,643.00
2024-03-24T10:18:55.691Z,649.00
2024-03-24T10:19:55.715Z,650.00
2024-03-24T10:20:55.776Z,647.00
2024-03-24T10:21:55.810Z,647.00
2024-03-24T10:22:55.860Z,653.00
2024-03-24T10:23:55.887Z,656.00
2024-03-24T10:24:55.919Z,664.00
2024-03-24T10:25:55.943Z,667.00
2024-03-24T10:26:55.967Z,661.00
2024-03-24T10:27:55.991Z,661.00
2024-03-24T10:28:56.018Z,662.00
2024-03-24T10:29:56.015Z,666.00
2024-03-24T10:30:56.030Z,666.00
2024-03-24T10:31:56.083Z,672.00
2024-03-24T10:32:56.099Z,679.00
2024-03-24T10:33:56.159Z,679.00
2024-03-24T10:34:56.174Z,680.00
2024-03-24T10:35:56.207Z,660.00
2024-03-24T10:36:56.265Z,654.00
2024-03-24T10:37:56.307Z,650.00
2024-03-24T10:38:56.339Z,657.00
2024-03-24T10:39:56.336Z,658.00
2024-03-24T10:40:56.368Z,660.00
2024-03-24T10:41:56.401Z,657.00
2024-03-24T10:42:56.455Z,657.00
2024-03-24T10:43:56.452Z,650.00
2024-03-24T10:44:56.509Z,642.00
2024-03-24T10:45:56.543Z,632.00
2024-03-24T10:46:56.554Z,621.00
2024-03-24T10:47:56.572Z,616.00
2024-03-24T10:48:56.617Z,609.00
2024-03-24T10:49:56.642Z,603.00
2024-03-24T10:50:56.678Z,601.00
2024-03-24T10:51:56.700Z,600.00
2024-03-24T10:52:58.732Z,600.00
2024-03-24T10:53:56.760Z,601.00
2024-03-24T10:54:56.786Z,603.00
2024-03-24T10:55:56.812Z,600.00
2024-03-24T10:56:56.849Z,601.00
2024-03-24T10:57:56.869Z,603.00
2024-03-24T10:58:56.878Z,607.00
2024-03-24T10:59:56.930Z,615.00
2024-03-24T11:00:56.968Z,614.00
2024-03-24T11:01:56.990Z,616.00
2024-03-24T11:02:57.014Z,623.00
2024-03-24T11:03:57.039Z,629.00
2024-03-24T11:04:57.066Z,633.00
2024-03-24T11:05:57.080Z,635.00
2024-03-24T11:06:57.139Z,641.00
2024-03-24T11:07:57.186Z,643.00
2024-03-24T11:08:57.226Z,651.00
2024-03-24T11:09:57.260Z,644.00
2024-03-24T11:10:57.313Z,646.00
2024-03-24T11:11:57.323Z,648.00
2024-03-24T11:12:57.369Z,650.00
2024-03-24T11:13:57.394Z,650.00
2024-03-24T11:14:57.459Z,655.00
2024-03-24T11:15:57.494Z,660.00
2024-03-24T11:16:57.534Z,661.00
2024-03-24T11:17:57.580Z,665.00
2024-03-24T11:18:57.617Z,665.00
2024-03-24T11:19:57.649Z,662.00
2024-03-24T11:20:57.684Z,661.00
2024-03-24T11:21:57.749Z,657.00
2024-03-24T11:22:57.767Z,655.00
2024-03-24T11:23:57.798Z,656.00
2024-03-24T11:24:57.826Z,657.00
2024-03-24T11:25:57.897Z,661.00
2024-03-24T11:26:57.917Z,661.00
2024-03-24T11:27:57.964Z,659.00
2024-03-24T11:28:58.012Z,663.00
2024-03-24T11:29:58.071Z,658.00
2024-03-24T11:30:58.099Z,667.00
2024-03-24T11:31:58.148Z,667.00
2024-03-24T11:32:58.208Z,664.00
2024-03-24T11:33:58.244Z,670.00
2024-03-24T11:34:58.303Z,679.00
2024-03-24T11:35:58.321Z,664.00
2024-03-24T11:36:58.364Z,660.00
2024-03-24T11:37:58.383Z,654.00
2024-03-24T11:38:58.375Z,657.00
2024-03-24T11:39:58.410Z,654.00
2024-03-24T11:40:58.462Z,662.00
2024-03-24T11:41:58.504Z,660.00
2024-03-24T11:42:58.567Z,661.00
2024-03-24T11:43:58.610Z,664.00
2024-03-24T11:44:58.660Z,683.00
2024-03-24T11:45:58.707Z,686.00
2024-03-24T11:46:58.758Z,685.00
2024-03-24T11:47:58.779Z,689.00
2024-03-24T11:48:58.830Z,694.00
2024-03-24T11:49:58.886Z,687.00
2024-03-24T11:50:58.933Z,696.00
2024-03-24T11:51:58.997Z,692.00
2024-03-24T11:52:59.052Z,701.00
2024-03-24T11:53:59.100Z,696.00
2024-03-24T11:54:59.165Z,706.00
2024-03-24T11:55:59.207Z,699.00
2024-03-24T11:56:59.260Z,700.00
2024-03-24T11:57:59.319Z,697.00
2024-03-24T11:58:59.366Z,702.00
2024-03-24T11:59:59.387Z,701.00
2024-03-24T12:01:00.163Z,694.00
2024-03-24T12:01:59.494Z,683.00
2024-03-24T12:02:59.549Z,699.00
2024-03-24T12:03:59.612Z,696.00
2024-03-24T12:04:59.684Z,702.00
2024-03-24T12:05:59.711Z,699.00
2024-03-24T12:06:59.766Z,709.00
2024-03-24T12:07:59.816Z,694.00
2024-03-24T12:08:59.856Z,685.00
2024-03-24T12:09:59.913Z,686.00
2024-03-24T12:10:59.948Z,672.00
2024-03-24T12:11:59.997Z,665.00
2024-03-24T12:13:00.055Z,660.00
2024-03-24T12:14:00.127Z,659.00
2024-03-24T12:15:00.190Z,663.00
2024-03-24T12:16:00.168Z,656.00
2024-03-24T12:17:00.187Z,658.00
2024-03-24T12:18:00.224Z,662.00
2024-03-24T12:19:00.291Z,667.00
2024-03-24T12:20:00.358Z,662.00
2024-03-24T12:21:00.384Z,651.00
2024-03-24T12:22:00.454Z,638.00
2024-03-24T12:23:00.485Z,645.00
2024-03-24T12:24:00.543Z,648.00
2024-03-24T12:25:00.599Z,656.00
2024-03-24T12:26:00.656Z,662.00
2024-03-24T12:27:00.706Z,668.00
2024-03-24T12:28:00.755Z,687.00
2024-03-24T12:29:00.803Z,670.00